sensor_id;sensor_type;location;lat;lon;timestamp;P1;durP1;ratioP1;P2;durP2;ratioP2
74471;SDS011;62920;53.572;10.050;2023-07-09T00:00:27;6.97;;;2.70;;
74471;SDS011;62920;53.572;10.050;2023-07-09T00:02:52;4.82;;;2.45;;
74471;SDS011;62920;53.572;10.050;2023-07-09T00:05:17;6.00;;;2.30;;
74471;SDS011;62920;53.572;10.050;2023-07-09T00:07:43;9.10;;;2.50;;
74471;SDS011;62920;53.572;10.050;2023-07-09T00:10:13;5.65;;;2.30;;
74471;SDS011;62920;53.572;10.050;2023-07-09T00:12:40;4.57;;;2.55;;
74471;SDS011;62920;53.572;10.050;2023-07-09T00:15:05;7.43;;;2.83;;
74471;SDS011;62920;53.572;10.050;2023-07-09T00:17:34;6.78;;;2.90;;
74471;SDS011;62920;53.572;10.050;2023-07-09T00:20:00;6.05;;;2.55;;
74471;SDS011;62920;53.572;10.050;2023-07-09T00:22:26;6.05;;;2.70;;
74471;SDS011;62920;53.572;10.050;2023-07-09T00:24:54;7.75;;;2.60;;
74471;SDS011;62920;53.572;10.050;2023-07-09T00:27:22;7.03;;;2.22;;
74471;SDS011;62920;53.572;10.050;2023-07-09T00:29:49;6.60;;;2.47;;
74471;SDS011;62920;53.572;10.050;2023-07-09T00:32:15;5.85;;;2.50;;
74471;SDS011;62920;53.572;10.050;2023-07-09T00:34:45;5.30;;;2.28;;
74471;SDS011;62920;53.572;10.050;2023-07-09T00:37:14;13.73;;;2.03;;
74471;SDS011;62920;53.572;10.050;2023-07-09T00:39:41;6.15;;;2.70;;
74471;SDS011;62920;53.572;10.050;2023-07-09T00:42:14;12.25;;;1.90;;
74471;SDS011;62920;53.572;10.050;2023-07-09T00:44:43;5.80;;;1.98;;
74471;SDS011;62920;53.572;10.050;2023-07-09T00:47:21;4.18;;;2.00;;
74471;SDS011;62920;53.572;10.050;2023-07-09T00:50:11;4.78;;;2.13;;
74471;SDS011;62920;53.572;10.050;2023-07-09T00:52:45;5.05;;;1.90;;
74471;SDS011;62920;53.572;10.050;2023-07-09T00:55:15;8.82;;;1.92;;
74471;SDS011;62920;53.572;10.050;2023-07-09T00:57:44;3.55;;;1.85;;
74471;SDS011;62920;53.572;10.050;2023-07-09T01:00:20;3.70;;;1.92;;
74471;SDS011;62920;53.572;10.050;2023-07-09T01:02:46;5.05;;;2.00;;
74471;SDS011;62920;53.572;10.050;2023-07-09T01:05:13;5.10;;;2.20;;
74471;SDS011;62920;53.572;10.050;2023-07-09T01:07:40;2.95;;;1.60;;
74471;SDS011;62920;53.572;10.050;2023-07-09T01:10:06;5.38;;;2.25;;
74471;SDS011;62920;53.572;10.050;2023-07-09T01:12:32;4.25;;;1.90;;
74471;SDS011;62920;53.572;10.050;2023-07-09T01:14:57;6.60;;;2.47;;
74471;SDS011;62920;53.572;10.050;2023-07-09T01:17:24;5.80;;;1.83;;
74471;SDS011;62920;53.572;10.050;2023-07-09T01:19:53;5.93;;;2.22;;
74471;SDS011;62920;53.572;10.050;2023-07-09T01:22:19;3.20;;;1.40;;
74471;SDS011;62920;53.572;10.050;2023-07-09T01:27:35;6.32;;;2.47;;
74471;SDS011;62920;53.572;10.050;2023-07-09T01:30:04;4.13;;;2.15;;
74471;SDS011;62920;53.572;10.050;2023-07-09T01:32:33;3.47;;;1.80;;
74471;SDS011;62920;53.572;10.050;2023-07-09T01:34:59;6.25;;;2.22;;
74471;SDS011;62920;53.572;10.050;2023-07-09T01:37:30;4.57;;;2.00;;
74471;SDS011;62920;53.572;10.050;2023-07-09T01:39:56;4.93;;;2.03;;
74471;SDS011;62920;53.572;10.050;2023-07-09T01:42:22;5.40;;;2.10;;
74471;SDS011;62920;53.572;10.050;2023-07-09T01:44:49;6.97;;;2.40;;
74471;SDS011;62920;53.572;10.050;2023-07-09T01:47:16;5.15;;;1.77;;
74471;SDS011;62920;53.572;10.050;2023-07-09T01:49:42;5.07;;;2.08;;
74471;SDS011;62920;53.572;10.050;2023-07-09T01:52:11;5.00;;;2.30;;
74471;SDS011;62920;53.572;10.050;2023-07-09T01:54:37;4.03;;;1.90;;
74471;SDS011;62920;53.572;10.050;2023-07-09T01:57:17;4.00;;;2.20;;
74471;SDS011;62920;53.572;10.050;2023-07-09T01:59:53;4.35;;;1.85;;
74471;SDS011;62920;53.572;10.050;2023-07-09T02:02:22;6.85;;;2.15;;
74471;SDS011;62920;53.572;10.050;2023-07-09T02:04:51;4.05;;;1.83;;
74471;SDS011;62920;53.572;10.050;2023-07-09T02:07:18;4.95;;;1.92;;
74471;SDS011;62920;53.572;10.050;2023-07-09T02:09:44;6.40;;;2.20;;
74471;SDS011;62920;53.572;10.050;2023-07-09T02:12:10;5.32;;;2.30;;
74471;SDS011;62920;53.572;10.050;2023-07-09T02:14:36;4.55;;;2.10;;
74471;SDS011;62920;53.572;10.050;2023-07-09T02:17:02;4.03;;;1.95;;
74471;SDS011;62920;53.572;10.050;2023-07-09T02:19:28;4.72;;;2.33;;
74471;SDS011;62920;53.572;10.050;2023-07-09T02:21:54;5.57;;;2.30;;
74471;SDS011;62920;53.572;10.050;2023-07-09T02:24:20;4.18;;;2.03;;
74471;SDS011;62920;53.572;10.050;2023-07-09T02:26:49;4.88;;;2.10;;
74471;SDS011;62920;53.572;10.050;2023-07-09T02:29:15;4.78;;;2.20;;
74471;SDS011;62920;53.572;10.050;2023-07-09T02:31:40;2.90;;;1.27;;
74471;SDS011;62920;53.572;10.050;2023-07-09T02:34:05;7.13;;;2.10;;
74471;SDS011;62920;53.572;10.050;2023-07-09T02:36:32;5.25;;;2.00;;
74471;SDS011;62920;53.572;10.050;2023-07-09T02:38:57;3.63;;;1.85;;
74471;SDS011;62920;53.572;10.050;2023-07-09T02:41:22;4.65;;;1.60;;
74471;SDS011;62920;53.572;10.050;2023-07-09T02:43:48;7.28;;;1.98;;
74471;SDS011;62920;53.572;10.050;2023-07-09T02:46:13;4.28;;;1.67;;
74471;SDS011;62920;53.572;10.050;2023-07-09T02:48:39;4.43;;;2.30;;
74471;SDS011;62920;53.572;10.050;2023-07-09T02:51:04;6.03;;;2.15;;
74471;SDS011;62920;53.572;10.050;2023-07-09T02:53:29;5.55;;;2.42;;
74471;SDS011;62920;53.572;10.050;2023-07-09T02:55:55;5.25;;;2.15;;
74471;SDS011;62920;53.572;10.050;2023-07-09T02:58:20;4.53;;;2.03;;
74471;SDS011;62920;53.572;10.050;2023-07-09T03:00:48;6.13;;;2.42;;
74471;SDS011;62920;53.572;10.050;2023-07-09T03:03:16;5.65;;;2.03;;
74471;SDS011;62920;53.572;10.050;2023-07-09T03:05:44;5.90;;;2.00;;
74471;SDS011;62920;53.572;10.050;2023-07-09T03:08:10;4.90;;;2.33;;
74471;SDS011;62920;53.572;10.050;2023-07-09T03:10:35;4.85;;;2.33;;
74471;SDS011;62920;53.572;10.050;2023-07-09T03:13:00;4.25;;;2.10;;
74471;SDS011;62920;53.572;10.050;2023-07-09T03:15:26;5.00;;;2.15;;
74471;SDS011;62920;53.572;10.050;2023-07-09T03:17:51;7.30;;;2.03;;
74471;SDS011;62920;53.572;10.050;2023-07-09T03:20:16;5.32;;;2.17;;
74471;SDS011;62920;53.572;10.050;2023-07-09T03:22:42;7.93;;;2.30;;
74471;SDS011;62920;53.572;10.050;2023-07-09T03:25:07;5.75;;;2.05;;
74471;SDS011;62920;53.572;10.050;2023-07-09T03:27:32;4.07;;;2.00;;
74471;SDS011;62920;53.572;10.050;2023-07-09T03:29:58;4.00;;;1.90;;
74471;SDS011;62920;53.572;10.050;2023-07-09T03:32:25;6.63;;;2.33;;
74471;SDS011;62920;53.572;10.050;2023-07-09T03:34:50;4.68;;;2.45;;
74471;SDS011;62920;53.572;10.050;2023-07-09T03:37:18;4.68;;;2.30;;
74471;SDS011;62920;53.572;10.050;2023-07-09T03:39:45;4.32;;;2.13;;
74471;SDS011;62920;53.572;10.050;2023-07-09T03:42:10;6.25;;;2.28;;
74471;SDS011;62920;53.572;10.050;2023-07-09T03:44:36;4.90;;;2.10;;
74471;SDS011;62920;53.572;10.050;2023-07-09T03:47:01;7.63;;;2.38;;
74471;SDS011;62920;53.572;10.050;2023-07-09T03:49:26;6.32;;;2.30;;
74471;SDS011;62920;53.572;10.050;2023-07-09T03:51:52;4.57;;;2.03;;
74471;SDS011;62920;53.572;10.050;2023-07-09T03:54:17;4.72;;;2.20;;
74471;SDS011;62920;53.572;10.050;2023-07-09T03:56:42;6.78;;;2.45;;
74471;SDS011;62920;53.572;10.050;2023-07-09T03:59:08;4.75;;;2.33;;
74471;SDS011;62920;53.572;10.050;2023-07-09T04:01:33;6.18;;;2.65;;
74471;SDS011;62920;53.572;10.050;2023-07-09T04:03:58;5.55;;;2.42;;
74471;SDS011;62920;53.572;10.050;2023-07-09T04:06:24;5.07;;;2.13;;
74471;SDS011;62920;53.572;10.050;2023-07-09T04:08:49;8.60;;;2.30;;
74471;SDS011;62920;53.572;10.050;2023-07-09T04:11:14;5.47;;;2.10;;
74471;SDS011;62920;53.572;10.050;2023-07-09T04:13:40;5.03;;;2.35;;
74471;SDS011;62920;53.572;10.050;2023-07-09T04:16:05;4.95;;;1.90;;
74471;SDS011;62920;53.572;10.050;2023-07-09T04:18:30;5.78;;;2.13;;
74471;SDS011;62920;53.572;10.050;2023-07-09T04:20:56;4.60;;;2.17;;
74471;SDS011;62920;53.572;10.050;2023-07-09T04:23:21;5.13;;;2.42;;
74471;SDS011;62920;53.572;10.050;2023-07-09T04:25:47;5.47;;;2.13;;
74471;SDS011;62920;53.572;10.050;2023-07-09T04:28:12;5.00;;;2.45;;
74471;SDS011;62920;53.572;10.050;2023-07-09T04:30:38;5.82;;;2.10;;
74471;SDS011;62920;53.572;10.050;2023-07-09T04:33:05;4.50;;;1.90;;
74471;SDS011;62920;53.572;10.050;2023-07-09T04:35:30;5.05;;;2.15;;
74471;SDS011;62920;53.572;10.050;2023-07-09T04:37:55;4.25;;;2.10;;
74471;SDS011;62920;53.572;10.050;2023-07-09T04:40:21;4.45;;;2.20;;
74471;SDS011;62920;53.572;10.050;2023-07-09T04:42:46;4.35;;;2.15;;
74471;SDS011;62920;53.572;10.050;2023-07-09T04:45:11;4.72;;;2.03;;
74471;SDS011;62920;53.572;10.050;2023-07-09T04:47:37;5.32;;;2.47;;
74471;SDS011;62920;53.572;10.050;2023-07-09T04:50:04;4.03;;;2.15;;
74471;SDS011;62920;53.572;10.050;2023-07-09T04:52:30;4.57;;;2.30;;
74471;SDS011;62920;53.572;10.050;2023-07-09T04:54:56;6.53;;;1.98;;
74471;SDS011;62920;53.572;10.050;2023-07-09T04:57:21;3.85;;;1.77;;
74471;SDS011;62920;53.572;10.050;2023-07-09T04:59:47;4.15;;;1.60;;
74471;SDS011;62920;53.572;10.050;2023-07-09T05:02:13;3.50;;;2.08;;
74471;SDS011;62920;53.572;10.050;2023-07-09T05:04:39;3.92;;;2.00;;
74471;SDS011;62920;53.572;10.050;2023-07-09T05:07:04;4.80;;;2.50;;
74471;SDS011;62920;53.572;10.050;2023-07-09T05:09:30;6.30;;;2.13;;
74471;SDS011;62920;53.572;10.050;2023-07-09T05:11:55;4.80;;;2.20;;
74471;SDS011;62920;53.572;10.050;2023-07-09T05:14:21;3.92;;;2.00;;
74471;SDS011;62920;53.572;10.050;2023-07-09T05:16:46;5.30;;;2.25;;
74471;SDS011;62920;53.572;10.050;2023-07-09T05:19:11;4.40;;;2.03;;
74471;SDS011;62920;53.572;10.050;2023-07-09T05:21:37;4.72;;;2.30;;
74471;SDS011;62920;53.572;10.050;2023-07-09T05:24:03;5.85;;;2.25;;
74471;SDS011;62920;53.572;10.050;2023-07-09T05:26:29;5.75;;;2.17;;
74471;SDS011;62920;53.572;10.050;2023-07-09T05:28:54;3.80;;;1.75;;
74471;SDS011;62920;53.572;10.050;2023-07-09T05:31:22;4.40;;;2.10;;
74471;SDS011;62920;53.572;10.050;2023-07-09T05:33:47;3.15;;;1.55;;
74471;SDS011;62920;53.572;10.050;2023-07-09T05:36:12;4.82;;;2.38;;
74471;SDS011;62920;53.572;10.050;2023-07-09T05:38:41;5.43;;;2.40;;
74471;SDS011;62920;53.572;10.050;2023-07-09T05:41:07;4.00;;;2.15;;
74471;SDS011;62920;53.572;10.050;2023-07-09T05:43:33;5.03;;;2.30;;
74471;SDS011;62920;53.572;10.050;2023-07-09T05:45:58;5.47;;;2.35;;
74471;SDS011;62920;53.572;10.050;2023-07-09T05:48:25;5.13;;;2.80;;
74471;SDS011;62920;53.572;10.050;2023-07-09T05:50:52;6.00;;;2.42;;
74471;SDS011;62920;53.572;10.050;2023-07-09T05:53:17;4.53;;;2.50;;
74471;SDS011;62920;53.572;10.050;2023-07-09T05:55:43;4.53;;;1.90;;
74471;SDS011;62920;53.572;10.050;2023-07-09T05:58:08;6.07;;;2.38;;
74471;SDS011;62920;53.572;10.050;2023-07-09T06:00:33;5.03;;;2.42;;
74471;SDS011;62920;53.572;10.050;2023-07-09T06:03:02;8.73;;;2.72;;
74471;SDS011;62920;53.572;10.050;2023-07-09T06:05:32;6.32;;;2.63;;
74471;SDS011;62920;53.572;10.050;2023-07-09T06:07:57;4.05;;;2.35;;
74471;SDS011;62920;53.572;10.050;2023-07-09T06:10:23;5.32;;;2.30;;
74471;SDS011;62920;53.572;10.050;2023-07-09T06:12:48;3.47;;;1.85;;
74471;SDS011;62920;53.572;10.050;2023-07-09T06:15:13;3.50;;;1.50;;
74471;SDS011;62920;53.572;10.050;2023-07-09T06:17:39;4.78;;;2.45;;
74471;SDS011;62920;53.572;10.050;2023-07-09T06:20:05;4.63;;;2.05;;
74471;SDS011;62920;53.572;10.050;2023-07-09T06:22:30;5.90;;;2.60;;
74471;SDS011;62920;53.572;10.050;2023-07-09T06:24:56;5.65;;;2.50;;
74471;SDS011;62920;53.572;10.050;2023-07-09T06:27:21;5.93;;;2.60;;
74471;SDS011;62920;53.572;10.050;2023-07-09T06:29:47;5.10;;;2.58;;
74471;SDS011;62920;53.572;10.050;2023-07-09T06:32:12;5.88;;;2.30;;
74471;SDS011;62920;53.572;10.050;2023-07-09T06:34:37;4.15;;;2.22;;
74471;SDS011;62920;53.572;10.050;2023-07-09T06:37:03;5.47;;;2.47;;
74471;SDS011;62920;53.572;10.050;2023-07-09T06:39:30;3.40;;;1.98;;
74471;SDS011;62920;53.572;10.050;2023-07-09T06:41:55;7.25;;;2.60;;
74471;SDS011;62920;53.572;10.050;2023-07-09T06:44:21;5.78;;;2.50;;
74471;SDS011;62920;53.572;10.050;2023-07-09T06:46:46;5.85;;;2.60;;
74471;SDS011;62920;53.572;10.050;2023-07-09T06:49:12;5.10;;;2.63;;
74471;SDS011;62920;53.572;10.050;2023-07-09T06:51:38;4.97;;;2.60;;
74471;SDS011;62920;53.572;10.050;2023-07-09T06:54:04;5.25;;;2.50;;
74471;SDS011;62920;53.572;10.050;2023-07-09T06:56:30;7.63;;;2.80;;
74471;SDS011;62920;53.572;10.050;2023-07-09T06:58:56;4.68;;;2.42;;
74471;SDS011;62920;53.572;10.050;2023-07-09T07:01:22;4.72;;;2.45;;
74471;SDS011;62920;53.572;10.050;2023-07-09T07:03:47;9.27;;;3.03;;
74471;SDS011;62920;53.572;10.050;2023-07-09T07:06:13;6.18;;;2.60;;
74471;SDS011;62920;53.572;10.050;2023-07-09T07:08:38;4.50;;;2.35;;
74471;SDS011;62920;53.572;10.050;2023-07-09T07:11:04;5.72;;;2.60;;
74471;SDS011;62920;53.572;10.050;2023-07-09T07:16:00;4.82;;;2.58;;
74471;SDS011;62920;53.572;10.050;2023-07-09T07:18:27;6.43;;;2.70;;
74471;SDS011;62920;53.572;10.050;2023-07-09T07:20:52;9.32;;;2.80;;
74471;SDS011;62920;53.572;10.050;2023-07-09T07:23:18;8.43;;;3.50;;
74471;SDS011;62920;53.572;10.050;2023-07-09T07:30:35;6.00;;;3.37;;
74471;SDS011;62920;53.572;10.050;2023-07-09T07:33:00;8.20;;;3.28;;
74471;SDS011;62920;53.572;10.050;2023-07-09T07:35:26;5.38;;;2.65;;
74471;SDS011;62920;53.572;10.050;2023-07-09T07:37:51;4.53;;;3.17;;
74471;SDS011;62920;53.572;10.050;2023-07-09T07:40:17;7.55;;;2.50;;
74471;SDS011;62920;53.572;10.050;2023-07-09T07:42:42;6.65;;;2.90;;
74471;SDS011;62920;53.572;10.050;2023-07-09T07:45:07;5.20;;;2.75;;
74471;SDS011;62920;53.572;10.050;2023-07-09T07:47:34;8.13;;;3.80;;
74471;SDS011;62920;53.572;10.050;2023-07-09T07:59:42;5.57;;;3.03;;
74471;SDS011;62920;53.572;10.050;2023-07-09T08:02:10;5.28;;;2.72;;
74471;SDS011;62920;53.572;10.050;2023-07-09T08:04:37;6.30;;;3.17;;
74471;SDS011;62920;53.572;10.050;2023-07-09T08:07:03;6.32;;;3.10;;
74471;SDS011;62920;53.572;10.050;2023-07-09T08:09:28;7.45;;;3.30;;
74471;SDS011;62920;53.572;10.050;2023-07-09T08:11:54;7.05;;;2.80;;
74471;SDS011;62920;53.572;10.050;2023-07-09T08:14:20;7.03;;;2.95;;
74471;SDS011;62920;53.572;10.050;2023-07-09T08:16:45;6.18;;;3.17;;
74471;SDS011;62920;53.572;10.050;2023-07-09T08:19:11;5.03;;;2.72;;
74471;SDS011;62920;53.572;10.050;2023-07-09T08:21:37;4.95;;;2.95;;
74471;SDS011;62920;53.572;10.050;2023-07-09T08:24:02;6.68;;;3.75;;
74471;SDS011;62920;53.572;10.050;2023-07-09T08:26:28;6.10;;;2.75;;
74471;SDS011;62920;53.572;10.050;2023-07-09T08:31:18;5.53;;;2.97;;
74471;SDS011;62920;53.572;10.050;2023-07-09T08:33:44;5.70;;;2.75;;
74471;SDS011;62920;53.572;10.050;2023-07-09T08:36:10;5.55;;;2.70;;
74471;SDS011;62920;53.572;10.050;2023-07-09T08:38:36;7.95;;;3.20;;
74471;SDS011;62920;53.572;10.050;2023-07-09T08:41:06;6.22;;;3.17;;
74471;SDS011;62920;53.572;10.050;2023-07-09T08:48:45;4.57;;;2.55;;
74471;SDS011;62920;53.572;10.050;2023-07-09T08:54:08;6.03;;;3.30;;
74471;SDS011;62920;53.572;10.050;2023-07-09T08:56:38;11.48;;;3.72;;
74471;SDS011;62920;53.572;10.050;2023-07-09T09:01:36;4.03;;;2.58;;
74471;SDS011;62920;53.572;10.050;2023-07-09T09:04:17;5.97;;;3.45;;
74471;SDS011;62920;53.572;10.050;2023-07-09T09:06:46;6.72;;;3.03;;
74471;SDS011;62920;53.572;10.050;2023-07-09T09:14:44;6.65;;;3.10;;
74471;SDS011;62920;53.572;10.050;2023-07-09T09:17:17;5.05;;;2.80;;
74471;SDS011;62920;53.572;10.050;2023-07-09T09:22:10;7.40;;;3.37;;
74471;SDS011;62920;53.572;10.050;2023-07-09T09:24:39;5.55;;;3.20;;
74471;SDS011;62920;53.572;10.050;2023-07-09T09:27:07;5.43;;;3.03;;
74471;SDS011;62920;53.572;10.050;2023-07-09T09:29:33;5.97;;;3.13;;
74471;SDS011;62920;53.572;10.050;2023-07-09T09:34:28;6.20;;;3.20;;
74471;SDS011;62920;53.572;10.050;2023-07-09T09:36:54;4.90;;;2.78;;
74471;SDS011;62920;53.572;10.050;2023-07-09T09:39:20;5.60;;;2.63;;
74471;SDS011;62920;53.572;10.050;2023-07-09T09:41:47;5.03;;;2.83;;
74471;SDS011;62920;53.572;10.050;2023-07-09T09:44:19;6.28;;;3.10;;
74471;SDS011;62920;53.572;10.050;2023-07-09T09:46:49;5.80;;;2.92;;
74471;SDS011;62920;53.572;10.050;2023-07-09T09:49:15;5.60;;;3.30;;
74471;SDS011;62920;53.572;10.050;2023-07-09T09:54:10;5.28;;;2.83;;
74471;SDS011;62920;53.572;10.050;2023-07-09T09:56:39;7.25;;;3.20;;
74471;SDS011;62920;53.572;10.050;2023-07-09T09:59:13;7.15;;;3.30;;
74471;SDS011;62920;53.572;10.050;2023-07-09T10:01:42;6.45;;;3.47;;
74471;SDS011;62920;53.572;10.050;2023-07-09T10:11:45;6.50;;;3.05;;
74471;SDS011;62920;53.572;10.050;2023-07-09T10:20:24;10.20;;;3.38;;
74471;SDS011;62920;53.572;10.050;2023-07-09T10:28:26;9.82;;;3.65;;
74471;SDS011;62920;53.572;10.050;2023-07-09T10:39:08;5.35;;;3.03;;
74471;SDS011;62920;53.572;10.050;2023-07-09T10:41:38;6.90;;;3.70;;
74471;SDS011;62920;53.572;10.050;2023-07-09T10:47:10;7.88;;;3.40;;
74471;SDS011;62920;53.572;10.050;2023-07-09T10:49:40;4.65;;;3.15;;
74471;SDS011;62920;53.572;10.050;2023-07-09T10:54:55;6.32;;;3.28;;
74471;SDS011;62920;53.572;10.050;2023-07-09T10:57:28;6.30;;;3.80;;
74471;SDS011;62920;53.572;10.050;2023-07-09T10:59:55;6.47;;;3.33;;
74471;SDS011;62920;53.572;10.050;2023-07-09T11:02:32;6.03;;;3.80;;
74471;SDS011;62920;53.572;10.050;2023-07-09T11:04:59;6.15;;;3.40;;
74471;SDS011;62920;53.572;10.050;2023-07-09T11:10:24;7.45;;;3.22;;
74471;SDS011;62920;53.572;10.050;2023-07-09T11:13:03;5.97;;;4.10;;
74471;SDS011;62920;53.572;10.050;2023-07-09T11:15:36;5.72;;;3.60;;
74471;SDS011;62920;53.572;10.050;2023-07-09T11:18:07;6.60;;;3.67;;
74471;SDS011;62920;53.572;10.050;2023-07-09T11:20:58;5.40;;;3.28;;
74471;SDS011;62920;53.572;10.050;2023-07-09T11:23:26;8.27;;;3.50;;
74471;SDS011;62920;53.572;10.050;2023-07-09T11:26:10;6.30;;;3.78;;
74471;SDS011;62920;53.572;10.050;2023-07-09T11:28:38;7.18;;;3.45;;
74471;SDS011;62920;53.572;10.050;2023-07-09T11:31:06;4.75;;;3.25;;
74471;SDS011;62920;53.572;10.050;2023-07-09T11:33:49;6.68;;;3.53;;
74471;SDS011;62920;53.572;10.050;2023-07-09T11:36:25;6.65;;;3.33;;
74471;SDS011;62920;53.572;10.050;2023-07-09T11:38:52;5.28;;;3.17;;
74471;SDS011;62920;53.572;10.050;2023-07-09T11:43:50;5.68;;;3.47;;
74471;SDS011;62920;53.572;10.050;2023-07-09T11:48:49;5.65;;;3.70;;
74471;SDS011;62920;53.572;10.050;2023-07-09T11:51:29;6.65;;;3.45;;
74471;SDS011;62920;53.572;10.050;2023-07-09T11:54:05;5.32;;;3.47;;
74471;SDS011;62920;53.572;10.050;2023-07-09T11:58:56;5.78;;;3.20;;
74471;SDS011;62920;53.572;10.050;2023-07-09T12:01:26;5.10;;;3.17;;
74471;SDS011;62920;53.572;10.050;2023-07-09T12:03:55;8.80;;;3.28;;
74471;SDS011;62920;53.572;10.050;2023-07-09T12:06:23;7.45;;;3.50;;
74471;SDS011;62920;53.572;10.050;2023-07-09T12:08:50;4.55;;;2.65;;
74471;SDS011;62920;53.572;10.050;2023-07-09T12:11:24;6.35;;;4.38;;
74471;SDS011;62920;53.572;10.050;2023-07-09T12:13:51;6.85;;;3.38;;
74471;SDS011;62920;53.572;10.050;2023-07-09T12:18:56;7.18;;;3.50;;
74471;SDS011;62920;53.572;10.050;2023-07-09T12:21:22;7.32;;;4.30;;
74471;SDS011;62920;53.572;10.050;2023-07-09T12:23:49;8.00;;;3.75;;
74471;SDS011;62920;53.572;10.050;2023-07-09T12:28:41;6.28;;;3.70;;
74471;SDS011;62920;53.572;10.050;2023-07-09T12:33:36;5.45;;;3.58;;
74471;SDS011;62920;53.572;10.050;2023-07-09T12:38:34;6.57;;;3.45;;
74471;SDS011;62920;53.572;10.050;2023-07-09T12:41:06;6.60;;;3.72;;
74471;SDS011;62920;53.572;10.050;2023-07-09T12:43:47;6.28;;;3.88;;
74471;SDS011;62920;53.572;10.050;2023-07-09T12:48:38;7.57;;;3.77;;
74471;SDS011;62920;53.572;10.050;2023-07-09T12:53:31;6.10;;;3.60;;
74471;SDS011;62920;53.572;10.050;2023-07-09T12:58:27;7.75;;;4.20;;
74471;SDS011;62920;53.572;10.050;2023-07-09T13:00:57;6.22;;;3.55;;
74471;SDS011;62920;53.572;10.050;2023-07-09T13:03:31;5.80;;;3.55;;
74471;SDS011;62920;53.572;10.050;2023-07-09T13:06:02;8.02;;;4.07;;
74471;SDS011;62920;53.572;10.050;2023-07-09T13:08:30;8.50;;;2.72;;
74471;SDS011;62920;53.572;10.050;2023-07-09T13:10:56;5.70;;;3.38;;
74471;SDS011;62920;53.572;10.050;2023-07-09T13:15:49;5.53;;;3.15;;
74471;SDS011;62920;53.572;10.050;2023-07-09T13:18:22;6.53;;;3.55;;
74471;SDS011;62920;53.572;10.050;2023-07-09T13:20:48;6.90;;;3.33;;
74471;SDS011;62920;53.572;10.050;2023-07-09T13:25:40;7.00;;;3.50;;
74471;SDS011;62920;53.572;10.050;2023-07-09T13:30:52;6.10;;;3.70;;
74471;SDS011;62920;53.572;10.050;2023-07-09T13:33:21;5.65;;;3.63;;
74471;SDS011;62920;53.572;10.050;2023-07-09T13:38:16;8.50;;;3.63;;
74471;SDS011;62920;53.572;10.050;2023-07-09T13:40:44;5.93;;;3.45;;
74471;SDS011;62920;53.572;10.050;2023-07-09T13:43:12;5.57;;;3.63;;
74471;SDS011;62920;53.572;10.050;2023-07-09T13:45:38;6.88;;;4.18;;
74471;SDS011;62920;53.572;10.050;2023-07-09T13:48:07;6.70;;;3.70;;
74471;SDS011;62920;53.572;10.050;2023-07-09T13:50:37;7.88;;;4.13;;
74471;SDS011;62920;53.572;10.050;2023-07-09T13:53:02;8.77;;;3.85;;
74471;SDS011;62920;53.572;10.050;2023-07-09T13:57:53;5.57;;;3.50;;
74471;SDS011;62920;53.572;10.050;2023-07-09T14:00:18;5.93;;;3.53;;
74471;SDS011;62920;53.572;10.050;2023-07-09T14:02:45;5.05;;;2.97;;
74471;SDS011;62920;53.572;10.050;2023-07-09T14:07:37;6.20;;;3.45;;
74471;SDS011;62920;53.572;10.050;2023-07-09T14:10:05;5.97;;;3.60;;
74471;SDS011;62920;53.572;10.050;2023-07-09T14:12:34;10.57;;;4.15;;
74471;SDS011;62920;53.572;10.050;2023-07-09T14:15:05;8.10;;;3.55;;
74471;SDS011;62920;53.572;10.050;2023-07-09T14:17:37;5.82;;;3.53;;
74471;SDS011;62920;53.572;10.050;2023-07-09T14:22:36;6.20;;;4.05;;
74471;SDS011;62920;53.572;10.050;2023-07-09T14:25:02;7.00;;;3.92;;
74471;SDS011;62920;53.572;10.050;2023-07-09T14:27:28;8.68;;;4.40;;
74471;SDS011;62920;53.572;10.050;2023-07-09T14:32:33;6.90;;;3.75;;
74471;SDS011;62920;53.572;10.050;2023-07-09T14:35:14;6.25;;;3.67;;
74471;SDS011;62920;53.572;10.050;2023-07-09T14:37:43;7.47;;;3.63;;
74471;SDS011;62920;53.572;10.050;2023-07-09T14:40:09;7.07;;;4.88;;
74471;SDS011;62920;53.572;10.050;2023-07-09T14:42:36;6.05;;;3.70;;
74471;SDS011;62920;53.572;10.050;2023-07-09T14:45:03;7.78;;;3.85;;
74471;SDS011;62920;53.572;10.050;2023-07-09T14:47:48;7.68;;;4.22;;
74471;SDS011;62920;53.572;10.050;2023-07-09T14:50:14;5.97;;;3.80;;
74471;SDS011;62920;53.572;10.050;2023-07-09T14:52:41;7.78;;;3.80;;
74471;SDS011;62920;53.572;10.050;2023-07-09T14:55:17;6.25;;;3.78;;
74471;SDS011;62920;53.572;10.050;2023-07-09T14:57:44;8.07;;;4.05;;
74471;SDS011;62920;53.572;10.050;2023-07-09T15:00:18;7.40;;;4.20;;
74471;SDS011;62920;53.572;10.050;2023-07-09T15:02:45;6.13;;;3.70;;
74471;SDS011;62920;53.572;10.050;2023-07-09T15:05:14;5.85;;;3.72;;
74471;SDS011;62920;53.572;10.050;2023-07-09T15:07:49;8.57;;;4.07;;
74471;SDS011;62920;53.572;10.050;2023-07-09T15:12:43;9.93;;;4.03;;
74471;SDS011;62920;53.572;10.050;2023-07-09T15:17:40;7.55;;;3.92;;
74471;SDS011;62920;53.572;10.050;2023-07-09T15:22:33;8.50;;;3.60;;
74471;SDS011;62920;53.572;10.050;2023-07-09T15:24:59;9.70;;;4.05;;
74471;SDS011;62920;53.572;10.050;2023-07-09T15:29:50;6.60;;;3.80;;
74471;SDS011;62920;53.572;10.050;2023-07-09T15:32:15;8.38;;;4.10;;
74471;SDS011;62920;53.572;10.050;2023-07-09T15:34:41;7.93;;;4.15;;
74471;SDS011;62920;53.572;10.050;2023-07-09T15:39:39;7.88;;;4.00;;
74471;SDS011;62920;53.572;10.050;2023-07-09T15:44:33;6.78;;;3.70;;
74471;SDS011;62920;53.572;10.050;2023-07-09T15:49:24;6.97;;;4.13;;
74471;SDS011;62920;53.572;10.050;2023-07-09T15:54:16;7.53;;;3.80;;
74471;SDS011;62920;53.572;10.050;2023-07-09T15:56:43;6.57;;;3.97;;
74471;SDS011;62920;53.572;10.050;2023-07-09T16:01:54;9.30;;;4.32;;
74471;SDS011;62920;53.572;10.050;2023-07-09T16:06:45;8.43;;;4.40;;
74471;SDS011;62920;53.572;10.050;2023-07-09T16:11:37;7.90;;;4.40;;
74471;SDS011;62920;53.572;10.050;2023-07-09T16:14:15;11.05;;;5.75;;
74471;SDS011;62920;53.572;10.050;2023-07-09T16:16:52;9.00;;;5.00;;
74471;SDS011;62920;53.572;10.050;2023-07-09T16:19:23;7.43;;;4.90;;
74471;SDS011;62920;53.572;10.050;2023-07-09T16:21:51;10.60;;;5.28;;
74471;SDS011;62920;53.572;10.050;2023-07-09T16:24:21;9.27;;;4.60;;
74471;SDS011;62920;53.572;10.050;2023-07-09T16:26:50;10.38;;;5.05;;
74471;SDS011;62920;53.572;10.050;2023-07-09T16:31:56;8.82;;;4.00;;
74471;SDS011;62920;53.572;10.050;2023-07-09T16:34:23;8.90;;;4.20;;
74471;SDS011;62920;53.572;10.050;2023-07-09T16:39:22;8.80;;;4.45;;
74471;SDS011;62920;53.572;10.050;2023-07-09T16:41:51;8.52;;;4.50;;
74471;SDS011;62920;53.572;10.050;2023-07-09T16:44:17;8.75;;;4.22;;
74471;SDS011;62920;53.572;10.050;2023-07-09T16:49:22;9.07;;;4.20;;
74471;SDS011;62920;53.572;10.050;2023-07-09T16:51:51;11.25;;;4.88;;
74471;SDS011;62920;53.572;10.050;2023-07-09T16:56:42;9.57;;;4.77;;
74471;SDS011;62920;53.572;10.050;2023-07-09T17:01:34;10.18;;;4.40;;
74471;SDS011;62920;53.572;10.050;2023-07-09T17:06:25;9.67;;;4.20;;
74471;SDS011;62920;53.572;10.050;2023-07-09T17:11:15;9.23;;;4.70;;
74471;SDS011;62920;53.572;10.050;2023-07-09T17:16:06;8.67;;;5.00;;
74471;SDS011;62920;53.572;10.050;2023-07-09T17:21:01;9.38;;;4.90;;
74471;SDS011;62920;53.572;10.050;2023-07-09T17:23:27;9.57;;;5.07;;
74471;SDS011;62920;53.572;10.050;2023-07-09T17:25:55;7.97;;;4.82;;
74471;SDS011;62920;53.572;10.050;2023-07-09T17:28:25;7.50;;;4.53;;
74471;SDS011;62920;53.572;10.050;2023-07-09T17:30:53;8.32;;;4.55;;